sensor_id;sensor_type;location;lat;lon;timestamp;temperature;humidity
13642;DHT22;6894;52.196;9.904;2023-02-11T00:01:38;6.40;1.00
13642;DHT22;6894;52.196;9.904;2023-02-11T00:04:06;6.50;1.00
13642;DHT22;6894;52.196;9.904;2023-02-11T00:06:35;6.40;1.00
13642;DHT22;6894;52.196;9.904;2023-02-11T00:09:02;6.40;1.00
13642;DHT22;6894;52.196;9.904;2023-02-11T00:11:29;6.40;1.00
13642;DHT22;6894;52.196;9.904;2023-02-11T00:13:57;6.40;1.00
13642;DHT22;6894;52.196;9.904;2023-02-11T00:16:24;6.50;1.00
13642;DHT22;6894;52.196;9.904;2023-02-11T00:18:51;6.40;1.00
13642;DHT22;6894;52.196;9.904;2023-02-11T00:21:20;6.50;1.00
13642;DHT22;6894;52.196;9.904;2023-02-11T00:23:48;6.50;1.00
13642;DHT22;6894;52.196;9.904;2023-02-11T00:26:18;6.40;1.00
13642;DHT22;6894;52.196;9.904;2023-02-11T00:28:45;6.50;1.00
13642;DHT22;6894;52.196;9.904;2023-02-11T00:31:13;6.50;1.00
13642;DHT22;6894;52.196;9.904;2023-02-11T00:33:41;6.50;1.00
13642;DHT22;6894;52.196;9.904;2023-02-11T00:36:10;6.50;1.00
13642;DHT22;6894;52.196;9.904;2023-02-11T00:38:37;6.50;18.70
13642;DHT22;6894;52.196;9.904;2023-02-11T00:41:05;6.50;64.00
13642;DHT22;6894;52.196;9.904;2023-02-11T00:43:32;6.50;99.90
13642;DHT22;6894;52.196;9.904;2023-02-11T00:45:59;6.50;99.90
13642;DHT22;6894;52.196;9.904;2023-02-11T00:48:25;6.50;99.90
13642;DHT22;6894;52.196;9.904;2023-02-11T00:50:52;6.60;99.90
13642;DHT22;6894;52.196;9.904;2023-02-11T00:53:19;6.60;99.90
13642;DHT22;6894;52.196;9.904;2023-02-11T00:55:46;6.50;99.90
13642;DHT22;6894;52.196;9.904;2023-02-11T00:58:14;6.50;99.90
13642;DHT22;6894;52.196;9.904;2023-02-11T01:00:41;6.60;99.90
13642;DHT22;6894;52.196;9.904;2023-02-11T01:03:07;6.60;99.90
13642;DHT22;6894;52.196;9.904;2023-02-11T01:05:34;6.50;1.00
13642;DHT22;6894;52.196;9.904;2023-02-11T01:08:01;6.50;1.00
13642;DHT22;6894;52.196;9.904;2023-02-11T01:10:28;6.50;1.00
13642;DHT22;6894;52.196;9.904;2023-02-11T01:12:54;6.50;1.00
13642;DHT22;6894;52.196;9.904;2023-02-11T01:15:23;6.50;1.00
13642;DHT22;6894;52.196;9.904;2023-02-11T01:17:50;6.50;1.00
13642;DHT22;6894;52.196;9.904;2023-02-11T01:20:19;6.50;1.00
13642;DHT22;6894;52.196;9.904;2023-02-11T01:22:46;6.50;1.00
13642;DHT22;6894;52.196;9.904;2023-02-11T01:25:13;6.50;1.00
13642;DHT22;6894;52.196;9.904;2023-02-11T01:27:40;6.50;1.00
13642;DHT22;6894;52.196;9.904;2023-02-11T01:30:10;6.40;1.00
13642;DHT22;6894;52.196;9.904;2023-02-11T01:32:39;6.40;1.00
13642;DHT22;6894;52.196;9.904;2023-02-11T01:35:06;6.40;1.00
13642;DHT22;6894;52.196;9.904;2023-02-11T01:37:33;6.40;1.00
13642;DHT22;6894;52.196;9.904;2023-02-11T01:40:00;6.40;1.00
13642;DHT22;6894;52.196;9.904;2023-02-11T01:42:27;6.30;1.00
13642;DHT22;6894;52.196;9.904;2023-02-11T01:44:56;6.30;1.00
13642;DHT22;6894;52.196;9.904;2023-02-11T01:47:23;6.30;1.00
13642;DHT22;6894;52.196;9.904;2023-02-11T01:49:54;6.20;12.90
13642;DHT22;6894;52.196;9.904;2023-02-11T01:52:25;6.30;24.30
13642;DHT22;6894;52.196;9.904;2023-02-11T01:54:54;6.30;30.50
13642;DHT22;6894;52.196;9.904;2023-02-11T01:57:42;6.30;32.40
13642;DHT22;6894;52.196;9.904;2023-02-11T02:00:13;6.30;39.20
13642;DHT22;6894;52.196;9.904;2023-02-11T02:02:45;6.30;34.00
13642;DHT22;6894;52.196;9.904;2023-02-11T02:05:27;6.30;35.40
13642;DHT22;6894;52.196;9.904;2023-02-11T02:08:04;6.30;48.60
13642;DHT22;6894;52.196;9.904;2023-02-11T02:10:34;6.30;78.60
13642;DHT22;6894;52.196;9.904;2023-02-11T02:13:03;6.30;94.40
13642;DHT22;6894;52.196;9.904;2023-02-11T02:15:32;6.30;99.90
13642;DHT22;6894;52.196;9.904;2023-02-11T02:18:07;6.30;99.90
13642;DHT22;6894;52.196;9.904;2023-02-11T02:21:16;6.30;99.90
13642;DHT22;6894;52.196;9.904;2023-02-11T02:27:08;6.30;99.90
13642;DHT22;6894;52.196;9.904;2023-02-11T02:30:03;6.30;99.90
13642;DHT22;6894;52.196;9.904;2023-02-11T02:32:45;6.20;99.90
13642;DHT22;6894;52.196;9.904;2023-02-11T02:35:23;6.30;99.90
13642;DHT22;6894;52.196;9.904;2023-02-11T02:37:55;6.20;99.90
13642;DHT22;6894;52.196;9.904;2023-02-11T02:40:26;6.20;99.90
13642;DHT22;6894;52.196;9.904;2023-02-11T02:42:55;6.20;99.90
13642;DHT22;6894;52.196;9.904;2023-02-11T02:45:23;6.40;99.90
13642;DHT22;6894;52.196;9.904;2023-02-11T02:47:51;6.30;99.90
13642;DHT22;6894;52.196;9.904;2023-02-11T02:50:23;6.30;99.90
13642;DHT22;6894;52.196;9.904;2023-02-11T02:53:06;6.20;99.90
13642;DHT22;6894;52.196;9.904;2023-02-11T02:55:43;6.20;99.90
13642;DHT22;6894;52.196;9.904;2023-02-11T02:58:34;6.20;99.90
13642;DHT22;6894;52.196;9.904;2023-02-11T03:01:09;6.30;99.90
13642;DHT22;6894;52.196;9.904;2023-02-11T03:03:43;6.30;99.90
13642;DHT22;6894;52.196;9.904;2023-02-11T03:06:17;6.30;99.90
13642;DHT22;6894;52.196;9.904;2023-02-11T03:08:51;6.30;99.90
13642;DHT22;6894;52.196;9.904;2023-02-11T03:11:21;6.30;99.90
13642;DHT22;6894;52.196;9.904;2023-02-11T03:13:49;6.30;99.90
13642;DHT22;6894;52.196;9.904;2023-02-11T03:16:18;6.30;99.90
13642;DHT22;6894;52.196;9.904;2023-02-11T03:18:50;6.30;99.90
13642;DHT22;6894;52.196;9.904;2023-02-11T03:21:19;6.30;99.90
13642;DHT22;6894;52.196;9.904;2023-02-11T03:23:49;6.30;99.90
13642;DHT22;6894;52.196;9.904;2023-02-11T03:26:23;6.30;99.90
13642;DHT22;6894;52.196;9.904;2023-02-11T03:28:54;6.30;99.90
13642;DHT22;6894;52.196;9.904;2023-02-11T03:31:27;6.30;99.90
13642;DHT22;6894;52.196;9.904;2023-02-11T03:34:03;6.30;99.90
13642;DHT22;6894;52.196;9.904;2023-02-11T03:36:37;6.30;99.90
13642;DHT22;6894;52.196;9.904;2023-02-11T03:39:12;6.30;99.90
13642;DHT22;6894;52.196;9.904;2023-02-11T03:41:41;6.30;99.90
13642;DHT22;6894;52.196;9.904;2023-02-11T03:44:11;6.30;99.90
13642;DHT22;6894;52.196;9.904;2023-02-11T03:46:42;6.30;99.90
13642;DHT22;6894;52.196;9.904;2023-02-11T03:49:12;6.30;99.90
13642;DHT22;6894;52.196;9.904;2023-02-11T03:51:40;6.30;99.90
13642;DHT22;6894;52.196;9.904;2023-02-11T03:54:16;6.30;99.90
13642;DHT22;6894;52.196;9.904;2023-02-11T03:56:49;6.20;99.90
13642;DHT22;6894;52.196;9.904;2023-02-11T03:59:17;6.20;99.90
13642;DHT22;6894;52.196;9.904;2023-02-11T04:01:43;6.30;99.90
13642;DHT22;6894;52.196;9.904;2023-02-11T04:04:12;6.30;99.90
13642;DHT22;6894;52.196;9.904;2023-02-11T04:06:39;6.20;99.90
13642;DHT22;6894;52.196;9.904;2023-02-11T04:09:06;6.20;99.90
13642;DHT22;6894;52.196;9.904;2023-02-11T04:11:33;6.20;99.90
13642;DHT22;6894;52.196;9.904;2023-02-11T04:14:00;6.30;99.90
13642;DHT22;6894;52.196;9.904;2023-02-11T04:16:26;6.30;99.90
13642;DHT22;6894;52.196;9.904;2023-02-11T04:18:55;6.30;99.90
13642;DHT22;6894;52.196;9.904;2023-02-11T04:21:23;6.30;99.90
13642;DHT22;6894;52.196;9.904;2023-02-11T04:23:50;6.30;99.90
13642;DHT22;6894;52.196;9.904;2023-02-11T04:26:17;6.30;99.90
13642;DHT22;6894;52.196;9.904;2023-02-11T04:28:43;6.30;99.90
13642;DHT22;6894;52.196;9.904;2023-02-11T04:31:10;6.30;99.90
13642;DHT22;6894;52.196;9.904;2023-02-11T04:33:37;6.20;99.90
13642;DHT22;6894;52.196;9.904;2023-02-11T04:36:04;6.60;99.90
13642;DHT22;6894;52.196;9.904;2023-02-11T04:38:32;6.20;99.90
13642;DHT22;6894;52.196;9.904;2023-02-11T04:40:59;6.20;99.90
13642;DHT22;6894;52.196;9.904;2023-02-11T04:43:25;6.20;99.90
13642;DHT22;6894;52.196;9.904;2023-02-11T04:45:55;6.20;99.90
13642;DHT22;6894;52.196;9.904;2023-02-11T04:48:22;6.20;99.90
13642;DHT22;6894;52.196;9.904;2023-02-11T04:50:49;6.10;99.90
13642;DHT22;6894;52.196;9.904;2023-02-11T04:53:16;6.10;99.90
13642;DHT22;6894;52.196;9.904;2023-02-11T04:55:46;6.10;99.90
13642;DHT22;6894;52.196;9.904;2023-02-11T04:58:13;6.10;99.90
13642;DHT22;6894;52.196;9.904;2023-02-11T05:00:40;6.10;99.90
13642;DHT22;6894;52.196;9.904;2023-02-11T05:03:07;6.00;99.90
13642;DHT22;6894;52.196;9.904;2023-02-11T05:05:36;6.10;99.90
13642;DHT22;6894;52.196;9.904;2023-02-11T05:08:03;6.10;99.90
13642;DHT22;6894;52.196;9.904;2023-02-11T05:10:30;6.10;99.90
13642;DHT22;6894;52.196;9.904;2023-02-11T05:12:58;6.10;99.90
13642;DHT22;6894;52.196;9.904;2023-02-11T05:15:25;6.10;99.90
13642;DHT22;6894;52.196;9.904;2023-02-11T05:17:52;6.10;99.90
13642;DHT22;6894;52.196;9.904;2023-02-11T05:20:19;6.10;99.90
13642;DHT22;6894;52.196;9.904;2023-02-11T05:22:46;6.10;99.90
13642;DHT22;6894;52.196;9.904;2023-02-11T05:25:13;6.10;99.90
13642;DHT22;6894;52.196;9.904;2023-02-11T05:27:39;6.10;99.90
13642;DHT22;6894;52.196;9.904;2023-02-11T05:30:10;6.10;99.90
13642;DHT22;6894;52.196;9.904;2023-02-11T05:32:37;6.10;99.90
13642;DHT22;6894;52.196;9.904;2023-02-11T05:35:04;6.10;99.90
13642;DHT22;6894;52.196;9.904;2023-02-11T05:37:31;6.20;99.90
13642;DHT22;6894;52.196;9.904;2023-02-11T05:39:58;6.20;99.90
13642;DHT22;6894;52.196;9.904;2023-02-11T05:42:24;6.20;99.90
13642;DHT22;6894;52.196;9.904;2023-02-11T05:44:51;6.20;99.90
13642;DHT22;6894;52.196;9.904;2023-02-11T05:47:19;6.20;99.90
13642;DHT22;6894;52.196;9.904;2023-02-11T05:49:46;6.30;99.90
13642;DHT22;6894;52.196;9.904;2023-02-11T05:52:13;6.30;99.90
13642;DHT22;6894;52.196;9.904;2023-02-11T05:54:40;6.30;99.90
13642;DHT22;6894;52.196;9.904;2023-02-11T05:57:06;6.40;99.90
13642;DHT22;6894;52.196;9.904;2023-02-11T05:59:33;6.30;99.90
13642;DHT22;6894;52.196;9.904;2023-02-11T06:02:00;6.40;99.90
13642;DHT22;6894;52.196;9.904;2023-02-11T06:04:28;6.40;99.90
13642;DHT22;6894;52.196;9.904;2023-02-11T06:06:55;6.40;99.90
13642;DHT22;6894;52.196;9.904;2023-02-11T06:09:21;6.40;99.90
13642;DHT22;6894;52.196;9.904;2023-02-11T06:11:48;6.50;99.90
13642;DHT22;6894;52.196;9.904;2023-02-11T06:14:15;6.40;99.90
13642;DHT22;6894;52.196;9.904;2023-02-11T06:16:42;6.50;99.90
13642;DHT22;6894;52.196;9.904;2023-02-11T06:19:09;6.50;99.90
13642;DHT22;6894;52.196;9.904;2023-02-11T06:21:37;6.40;99.90
13642;DHT22;6894;52.196;9.904;2023-02-11T06:24:04;6.40;99.90
13642;DHT22;6894;52.196;9.904;2023-02-11T06:26:32;6.50;99.90
13642;DHT22;6894;52.196;9.904;2023-02-11T06:28:59;6.50;99.90
13642;DHT22;6894;52.196;9.904;2023-02-11T06:31:27;6.50;99.90
13642;DHT22;6894;52.196;9.904;2023-02-11T06:33:53;6.50;99.90
13642;DHT22;6894;52.196;9.904;2023-02-11T06:36:21;6.50;99.90
13642;DHT22;6894;52.196;9.904;2023-02-11T06:38:49;6.50;99.90
13642;DHT22;6894;52.196;9.904;2023-02-11T06:41:18;6.50;99.90
13642;DHT22;6894;52.196;9.904;2023-02-11T06:43:45;6.50;99.90
13642;DHT22;6894;52.196;9.904;2023-02-11T06:46:12;6.60;99.90
13642;DHT22;6894;52.196;9.904;2023-02-11T06:48:39;6.60;99.90
13642;DHT22;6894;52.196;9.904;2023-02-11T06:51:07;6.60;99.90
13642;DHT22;6894;52.196;9.904;2023-02-11T06:53:36;6.60;99.90
13642;DHT22;6894;52.196;9.904;2023-02-11T06:56:05;6.60;99.90
13642;DHT22;6894;52.196;9.904;2023-02-11T06:58:33;6.60;99.90
13642;DHT22;6894;52.196;9.904;2023-02-11T07:01:03;6.60;99.90
13642;DHT22;6894;52.196;9.904;2023-02-11T07:03:31;6.60;99.90
13642;DHT22;6894;52.196;9.904;2023-02-11T07:05:59;6.60;99.90
13642;DHT22;6894;52.196;9.904;2023-02-11T07:08:26;5.70;99.90
13642;DHT22;6894;52.196;9.904;2023-02-11T07:10:52;6.70;99.90
13642;DHT22;6894;52.196;9.904;2023-02-11T07:13:20;6.70;99.90
13642;DHT22;6894;52.196;9.904;2023-02-11T07:15:47;6.70;99.90
13642;DHT22;6894;52.196;9.904;2023-02-11T07:18:14;6.70;99.90
13642;DHT22;6894;52.196;9.904;2023-02-11T07:20:41;6.80;99.90
13642;DHT22;6894;52.196;9.904;2023-02-11T07:23:08;6.80;99.90
13642;DHT22;6894;52.196;9.904;2023-02-11T07:25:36;6.80;99.90
13642;DHT22;6894;52.196;9.904;2023-02-11T07:28:03;6.80;99.90
13642;DHT22;6894;52.196;9.904;2023-02-11T07:30:31;6.80;99.90
13642;DHT22;6894;52.196;9.904;2023-02-11T07:32:58;6.80;99.90
13642;DHT22;6894;52.196;9.904;2023-02-11T07:35:25;6.80;99.90
13642;DHT22;6894;52.196;9.904;2023-02-11T07:37:52;6.80;99.90
13642;DHT22;6894;52.196;9.904;2023-02-11T07:40:18;6.90;99.90
13642;DHT22;6894;52.196;9.904;2023-02-11T07:42:45;6.80;99.90
13642;DHT22;6894;52.196;9.904;2023-02-11T07:45:12;6.90;99.90
13642;DHT22;6894;52.196;9.904;2023-02-11T07:47:40;6.90;99.90
13642;DHT22;6894;52.196;9.904;2023-02-11T07:50:08;6.90;99.90
13642;DHT22;6894;52.196;9.904;2023-02-11T07:52:34;6.90;99.90
13642;DHT22;6894;52.196;9.904;2023-02-11T07:55:01;6.90;99.90
13642;DHT22;6894;52.196;9.904;2023-02-11T07:57:28;6.90;99.90
13642;DHT22;6894;52.196;9.904;2023-02-11T07:59:55;6.90;99.90
13642;DHT22;6894;52.196;9.904;2023-02-11T08:02:21;6.90;99.90
13642;DHT22;6894;52.196;9.904;2023-02-11T08:04:49;6.90;99.90
13642;DHT22;6894;52.196;9.904;2023-02-11T08:07:16;6.90;99.90
13642;DHT22;6894;52.196;9.904;2023-02-11T08:09:43;7.00;99.90
13642;DHT22;6894;52.196;9.904;2023-02-11T08:12:10;7.00;99.90
13642;DHT22;6894;52.196;9.904;2023-02-11T08:14:37;7.00;99.90
13642;DHT22;6894;52.196;9.904;2023-02-11T08:17:04;7.00;99.90
13642;DHT22;6894;52.196;9.904;2023-02-11T08:19:30;7.00;99.90
13642;DHT22;6894;52.196;9.904;2023-02-11T08:21:59;7.10;99.90
13642;DHT22;6894;52.196;9.904;2023-02-11T08:24:26;7.10;99.90
13642;DHT22;6894;52.196;9.904;2023-02-11T08:26:53;7.10;99.90
13642;DHT22;6894;52.196;9.904;2023-02-11T08:29:19;7.60;99.90
13642;DHT22;6894;52.196;9.904;2023-02-11T08:31:47;7.20;99.90
13642;DHT22;6894;52.196;9.904;2023-02-11T08:34:14;7.20;99.90
13642;DHT22;6894;52.196;9.904;2023-02-11T08:36:44;7.20;99.90
13642;DHT22;6894;52.196;9.904;2023-02-11T08:39:14;7.20;99.90
13642;DHT22;6894;52.196;9.904;2023-02-11T08:41:41;7.30;99.90
13642;DHT22;6894;52.196;9.904;2023-02-11T08:44:08;7.20;99.90
13642;DHT22;6894;52.196;9.904;2023-02-11T08:46:35;7.30;99.90
13642;DHT22;6894;52.196;9.904;2023-02-11T08:49:02;7.30;99.90
13642;DHT22;6894;52.196;9.904;2023-02-11T08:51:29;7.30;99.90
13642;DHT22;6894;52.196;9.904;2023-02-11T08:53:56;7.30;99.90
13642;DHT22;6894;52.196;9.904;2023-02-11T08:56:25;7.30;99.90
13642;DHT22;6894;52.196;9.904;2023-02-11T08:58:53;7.30;99.90
13642;DHT22;6894;52.196;9.904;2023-02-11T09:01:21;7.30;99.90
13642;DHT22;6894;52.196;9.904;2023-02-11T09:03:49;7.30;99.90
13642;DHT22;6894;52.196;9.904;2023-02-11T09:06:15;7.30;99.90
13642;DHT22;6894;52.196;9.904;2023-02-11T09:08:44;7.30;99.90
13642;DHT22;6894;52.196;9.904;2023-02-11T09:11:12;7.40;99.90
13642;DHT22;6894;52.196;9.904;2023-02-11T09:13:42;7.40;99.90
13642;DHT22;6894;52.196;9.904;2023-02-11T09:16:15;7.40;99.90
13642;DHT22;6894;52.196;9.904;2023-02-11T09:18:42;7.30;99.90
13642;DHT22;6894;52.196;9.904;2023-02-11T09:21:13;7.50;99.90
13642;DHT22;6894;52.196;9.904;2023-02-11T09:23:41;7.40;99.90
13642;DHT22;6894;52.196;9.904;2023-02-11T09:26:13;7.50;99.90
13642;DHT22;6894;52.196;9.904;2023-02-11T09:28:42;7.50;99.90
13642;DHT22;6894;52.196;9.904;2023-02-11T09:31:10;7.50;99.90
13642;DHT22;6894;52.196;9.904;2023-02-11T09:33:39;7.50;99.90
13642;DHT22;6894;52.196;9.904;2023-02-11T09:36:13;7.60;99.90
13642;DHT22;6894;52.196;9.904;2023-02-11T09:38:40;7.60;99.90
13642;DHT22;6894;52.196;9.904;2023-02-11T09:41:30;7.70;99.90
13642;DHT22;6894;52.196;9.904;2023-02-11T09:44:01;7.70;99.90
13642;DHT22;6894;52.196;9.904;2023-02-11T09:46:31;7.70;99.90
13642;DHT22;6894;52.196;9.904;2023-02-11T09:48:58;7.80;99.90
13642;DHT22;6894;52.196;9.904;2023-02-11T09:51:32;7.70;99.90
13642;DHT22;6894;52.196;9.904;2023-02-11T09:54:06;7.80;99.90
13642;DHT22;6894;52.196;9.904;2023-02-11T09:56:37;7.80;99.90
13642;DHT22;6894;52.196;9.904;2023-02-11T09:59:09;7.90;99.90
13642;DHT22;6894;52.196;9.904;2023-02-11T10:01:38;7.90;99.90
13642;DHT22;6894;52.196;9.904;2023-02-11T10:04:12;7.90;99.90
13642;DHT22;6894;52.196;9.904;2023-02-11T10:06:41;7.90;99.90
13642;DHT22;6894;52.196;9.904;2023-02-11T10:09:32;8.00;99.90
13642;DHT22;6894;52.196;9.904;2023-02-11T10:12:10;8.00;99.90
13642;DHT22;6894;52.196;9.904;2023-02-11T10:14:52;8.00;99.90
13642;DHT22;6894;52.196;9.904;2023-02-11T10:17:28;8.00;99.90
13642;DHT22;6894;52.196;9.904;2023-02-11T10:20:11;8.00;99.90
13642;DHT22;6894;52.196;9.904;2023-02-11T10:22:43;8.00;99.90
13642;DHT22;6894;52.196;9.904;2023-02-11T10:25:18;8.00;99.90
13642;DHT22;6894;52.196;9.904;2023-02-11T10:27:46;8.00;99.90
13642;DHT22;6894;52.196;9.904;2023-02-11T10:30:20;7.90;99.90
13642;DHT22;6894;52.196;9.904;2023-02-11T10:32:50;7.90;99.90
13642;DHT22;6894;52.196;9.904;2023-02-11T10:35:20;7.90;99.90
13642;DHT22;6894;52.196;9.904;2023-02-11T10:37:47;7.90;99.90
13642;DHT22;6894;52.196;9.904;2023-02-11T10:40:15;8.00;99.90
13642;DHT22;6894;52.196;9.904;2023-02-11T10:42:46;8.00;99.90
13642;DHT22;6894;52.196;9.904;2023-02-11T10:45:18;8.00;99.90
13642;DHT22;6894;52.196;9.904;2023-02-11T10:47:49;7.90;99.90
13642;DHT22;6894;52.196;9.904;2023-02-11T10:50:21;8.00;99.90
13642;DHT22;6894;52.196;9.904;2023-02-11T10:52:48;8.00;99.90
13642;DHT22;6894;52.196;9.904;2023-02-11T10:55:17;8.00;99.90
13642;DHT22;6894;52.196;9.904;2023-02-11T10:57:51;8.00;99.90
13642;DHT22;6894;52.196;9.904;2023-02-11T11:00:29;8.00;99.90
13642;DHT22;6894;52.196;9.904;2023-02-11T11:02:59;8.10;99.90
13642;DHT22;6894;52.196;9.904;2023-02-11T11:05:31;8.10;99.90
13642;DHT22;6894;52.196;9.904;2023-02-11T11:08:01;8.10;99.90
13642;DHT22;6894;52.196;9.904;2023-02-11T11:10:38;8.10;99.90
13642;DHT22;6894;52.196;9.904;2023-02-11T11:13:24;8.10;99.90
13642;DHT22;6894;52.196;9.904;2023-02-11T11:16:07;8.10;99.90
13642;DHT22;6894;52.196;9.904;2023-02-11T11:18:36;8.10;99.90
13642;DHT22;6894;52.196;9.904;2023-02-11T11:21:05;8.10;99.90
13642;DHT22;6894;52.196;9.904;2023-02-11T11:23:34;8.20;99.90
13642;DHT22;6894;52.196;9.904;2023-02-11T11:26:04;8.20;99.90
13642;DHT22;6894;52.196;9.904;2023-02-11T11:28:35;8.10;99.90
13642;DHT22;6894;52.196;9.904;2023-02-11T11:31:12;8.10;99.90
13642;DHT22;6894;52.196;9.904;2023-02-11T11:33:42;8.10;99.90
13642;DHT22;6894;52.196;9.904;2023-02-11T11:36:11;8.10;99.90
13642;DHT22;6894;52.196;9.904;2023-02-11T11:38:43;8.10;99.90
13642;DHT22;6894;52.196;9.904;2023-02-11T11:41:21;8.10;99.90
13642;DHT22;6894;52.196;9.904;2023-02-11T11:43:55;8.20;99.90
13642;DHT22;6894;52.196;9.904;2023-02-11T11:46:24;8.10;99.90
13642;DHT22;6894;52.196;9.904;2023-02-11T11:48:55;8.10;99.90
13642;DHT22;6894;52.196;9.904;2023-02-11T11:51:25;8.00;99.90
13642;DHT22;6894;52.196;9.904;2023-02-11T11:53:57;8.00;99.90
13642;DHT22;6894;52.196;9.904;2023-02-11T11:56:26;8.00;99.90
13642;DHT22;6894;52.196;9.904;2023-02-11T11:58:55;8.00;99.90
13642;DHT22;6894;52.196;9.904;2023-02-11T12:01:31;8.20;99.90
13642;DHT22;6894;52.196;9.904;2023-02-11T12:06:50;7.90;99.90
13642;DHT22;6894;52.196;9.904;2023-02-11T12:09:24;8.00;99.90
13642;DHT22;6894;52.196;9.904;2023-02-11T12:12:18;8.10;99.90
13642;DHT22;6894;52.196;9.904;2023-02-11T12:14:54;8.00;99.90
13642;DHT22;6894;52.196;9.904;2023-02-11T12:17:37;8.10;99.90
13642;DHT22;6894;52.196;9.904;2023-02-11T12:20:23;8.10;99.90
13642;DHT22;6894;52.196;9.904;2023-02-11T12:22:59;8.10;99.90
13642;DHT22;6894;52.196;9.904;2023-02-11T12:25:35;8.10;99.90
13642;DHT22;6894;52.196;9.904;2023-02-11T12:28:18;8.10;99.90
13642;DHT22;6894;52.196;9.904;2023-02-11T12:31:03;8.00;99.90
13642;DHT22;6894;52.196;9.904;2023-02-11T12:34:02;8.00;99.90
13642;DHT22;6894;52.196;9.904;2023-02-11T12:36:44;8.20;99.90
13642;DHT22;6894;52.196;9.904;2023-02-11T12:39:28;8.10;99.90
13642;DHT22;6894;52.196;9.904;2023-02-11T12:42:12;8.10;99.90
13642;DHT22;6894;52.196;9.904;2023-02-11T12:45:08;8.10;99.90
13642;DHT22;6894;52.196;9.904;2023-02-11T12:47:46;8.10;99.90
13642;DHT22;6894;52.196;9.904;2023-02-11T12:50:22;8.10;99.90
13642;DHT22;6894;52.196;9.904;2023-02-11T12:55:54;8.10;99.90
13642;DHT22;6894;52.196;9.904;2023-02-11T12:58:26;8.20;99.90
13642;DHT22;6894;52.196;9.904;2023-02-11T13:00:57;8.10;99.90
13642;DHT22;6894;52.196;9.904;2023-02-11T13:03:30;8.20;99.90
13642;DHT22;6894;52.196;9.904;2023-02-11T13:06:00;8.10;99.90
13642;DHT22;6894;52.196;9.904;2023-02-11T13:08:32;8.10;99.90
13642;DHT22;6894;52.196;9.904;2023-02-11T13:11:02;8.10;99.90
13642;DHT22;6894;52.196;9.904;2023-02-11T13:13:34;8.10;99.90
13642;DHT22;6894;52.196;9.904;2023-02-11T13:16:06;8.00;99.90
13642;DHT22;6894;52.196;9.904;2023-02-11T13:18:48;8.10;99.90
13642;DHT22;6894;52.196;9.904;2023-02-11T13:24:21;8.00;99.90
13642;DHT22;6894;52.196;9.904;2023-02-11T13:26:59;8.10;99.90
13642;DHT22;6894;52.196;9.904;2023-02-11T13:29:32;8.00;99.90
13642;DHT22;6894;52.196;9.904;2023-02-11T13:32:06;8.00;99.90
13642;DHT22;6894;52.196;9.904;2023-02-11T13:34:57;8.10;99.90
13642;DHT22;6894;52.196;9.904;2023-02-11T13:37:26;8.10;99.90
13642;DHT22;6894;52.196;9.904;2023-02-11T13:40:00;8.10;99.90
13642;DHT22;6894;52.196;9.904;2023-02-11T13:42:27;8.10;99.90
13642;DHT22;6894;52.196;9.904;2023-02-11T13:44:55;8.00;99.90
13642;DHT22;6894;52.196;9.904;2023-02-11T13:47:26;8.00;99.90
13642;DHT22;6894;52.196;9.904;2023-02-11T13:49:54;8.00;99.90
13642;DHT22;6894;52.196;9.904;2023-02-11T13:52:24;8.00;99.90
13642;DHT22;6894;52.196;9.904;2023-02-11T13:54:54;8.00;99.90
13642;DHT22;6894;52.196;9.904;2023-02-11T13:57:41;8.00;99.90
13642;DHT22;6894;52.196;9.904;2023-02-11T14:03:31;8.00;99.90
13642;DHT22;6894;52.196;9.904;2023-02-11T14:06:19;8.00;99.90
13642;DHT22;6894;52.196;9.904;2023-02-11T14:09:36;8.10;99.90
13642;DHT22;6894;52.196;9.904;2023-02-11T14:12:29;8.10;99.90
13642;DHT22;6894;52.196;9.904;2023-02-11T14:15:00;8.10;99.90
13642;DHT22;6894;52.196;9.904;2023-02-11T14:17:29;8.10;99.90
13642;DHT22;6894;52.196;9.904;2023-02-11T14:19:56;8.10;99.90
13642;DHT22;6894;52.196;9.904;2023-02-11T14:22:26;8.10;99.90
13642;DHT22;6894;52.196;9.904;2023-02-11T14:24:56;8.10;99.90
13642;DHT22;6894;52.196;9.904;2023-02-11T14:27:34;8.20;99.90
13642;DHT22;6894;52.196;9.904;2023-02-11T14:30:19;8.20;99.90
13642;DHT22;6894;52.196;9.904;2023-02-11T14:35:40;8.20;99.90
13642;DHT22;6894;52.196;9.904;2023-02-11T14:38:17;8.20;99.90
13642;DHT22;6894;52.196;9.904;2023-02-11T14:40:51;8.20;99.90
13642;DHT22;6894;52.196;9.904;2023-02-11T14:43:23;8.20;99.90
13642;DHT22;6894;52.196;9.904;2023-02-11T14:45:55;8.20;99.90
13642;DHT22;6894;52.196;9.904;2023-02-11T14:48:27;8.20;99.90
13642;DHT22;6894;52.196;9.904;2023-02-11T14:50:59;8.30;99.90
13642;DHT22;6894;52.196;9.904;2023-02-11T14:53:27;8.20;99.90
13642;DHT22;6894;52.196;9.904;2023-02-11T14:55:56;8.30;99.90
13642;DHT22;6894;52.196;9.904;2023-02-11T14:58:24;8.30;99.90
13642;DHT22;6894;52.196;9.904;2023-02-11T15:00:55;8.30;99.90
13642;DHT22;6894;52.196;9.904;2023-02-11T15:03:24;8.30;99.90
13642;DHT22;6894;52.196;9.904;2023-02-11T15:05:54;8.30;99.90
13642;DHT22;6894;52.196;9.904;2023-02-11T15:08:21;8.30;99.90
13642;DHT22;6894;52.196;9.904;2023-02-11T15:10:48;8.30;99.90
13642;DHT22;6894;52.196;9.904;2023-02-11T15:13:18;8.30;99.90
13642;DHT22;6894;52.196;9.904;2023-02-11T15:15:46;8.30;99.90
13642;DHT22;6894;52.196;9.904;2023-02-11T15:18:19;8.30;99.90
13642;DHT22;6894;52.196;9.904;2023-02-11T15:20:47;8.40;99.90
13642;DHT22;6894;52.196;9.904;2023-02-11T15:23:19;8.40;99.90
13642;DHT22;6894;52.196;9.904;2023-02-11T15:25:47;8.40;99.90
13642;DHT22;6894;52.196;9.904;2023-02-11T15:28:21;8.40;99.90
13642;DHT22;6894;52.196;9.904;2023-02-11T15:30:56;8.30;99.90
13642;DHT22;6894;52.196;9.904;2023-02-11T15:33:24;8.40;99.90
13642;DHT22;6894;52.196;9.904;2023-02-11T15:35:54;8.40;99.90
13642;DHT22;6894;52.196;9.904;2023-02-11T15:38:21;8.30;99.90
13642;DHT22;6894;52.196;9.904;2023-02-11T15:40:54;8.40;99.90
13642;DHT22;6894;52.196;9.904;2023-02-11T15:43:21;8.40;99.90
13642;DHT22;6894;52.196;9.904;2023-02-11T15:45:58;8.40;99.90
13642;DHT22;6894;52.196;9.904;2023-02-11T15:48:34;8.40;99.90
13642;DHT22;6894;52.196;9.904;2023-02-11T15:51:07;8.40;99.90
13642;DHT22;6894;52.196;9.904;2023-02-11T15:53:37;8.40;99.90
13642;DHT22;6894;52.196;9.904;2023-02-11T15:56:10;8.40;99.90
13642;DHT22;6894;52.196;9.904;2023-02-11T15:58:41;8.40;99.90
13642;DHT22;6894;52.196;9.904;2023-02-11T16:01:09;8.30;99.90
13642;DHT22;6894;52.196;9.904;2023-02-11T16:03:38;8.40;99.90
13642;DHT22;6894;52.196;9.904;2023-02-11T16:06:20;8.40;99.90
13642;DHT22;6894;52.196;9.904;2023-02-11T16:08:58;8.40;99.90
13642;DHT22;6894;52.196;9.904;2023-02-11T16:11:27;8.40;99.90
13642;DHT22;6894;52.196;9.904;2023-02-11T16:13:56;8.40;99.90
13642;DHT22;6894;52.196;9.904;2023-02-11T16:16:27;8.40;99.90
13642;DHT22;6894;52.196;9.904;2023-02-11T16:18:58;8.30;99.90
13642;DHT22;6894;52.196;9.904;2023-02-11T16:21:29;8.40;99.90
13642;DHT22;6894;52.196;9.904;2023-02-11T16:23:59;8.40;99.90
13642;DHT22;6894;52.196;9.904;2023-02-11T16:26:30;8.40;99.90
13642;DHT22;6894;52.196;9.904;2023-02-11T16:29:09;8.40;99.90
13642;DHT22;6894;52.196;9.904;2023-02-11T16:31:39;8.40;99.90
13642;DHT22;6894;52.196;9.904;2023-02-11T16:34:15;8.40;99.90
13642;DHT22;6894;52.196;9.904;2023-02-11T16:36:42;8.40;99.90
13642;DHT22;6894;52.196;9.904;2023-02-11T16:39:09;8.40;99.90
13642;DHT22;6894;52.196;9.904;2023-02-11T16:41:36;8.40;99.90
13642;DHT22;6894;52.196;9.904;2023-02-11T16:44:03;8.40;99.90